createdAt,value
2022-07-26T00:01:20.723Z,1.95
2022-07-26T00:03:49.339Z,2.03
2022-07-26T00:06:16.121Z,2.53
2022-07-26T00:08:45.704Z,2.25
2022-07-26T00:11:12.557Z,2.00
2022-07-26T00:13:39.740Z,2.13
2022-07-26T00:16:06.607Z,1.85
2022-07-26T00:18:33.548Z,1.70
2022-07-26T00:21:00.084Z,1.60
2022-07-26T00:23:27.618Z,2.40
2022-07-26T00:25:54.132Z,2.00
2022-07-26T00:28:20.636Z,2.55
2022-07-26T00:30:47.231Z,1.38
2022-07-26T00:33:13.772Z,2.22
2022-07-26T00:35:40.383Z,2.10
2022-07-26T00:38:06.968Z,2.42
2022-07-26T00:40:34.385Z,2.17
2022-07-26T00:43:00.915Z,1.73
2022-07-26T00:45:27.406Z,1.92
2022-07-26T00:47:53.981Z,2.45
2022-07-26T00:50:20.504Z,1.90
2022-07-26T00:52:49.356Z,2.38
2022-07-26T00:55:16.977Z,1.88
2022-07-26T00:57:44.772Z,1.40
2022-07-26T01:00:15.131Z,2.08
2022-07-26T01:02:41.899Z,2.88
2022-07-26T01:05:08.908Z,2.53
2022-07-26T01:07:37.216Z,2.85
2022-07-26T01:10:06.889Z,2.38
2022-07-26T01:12:33.436Z,2.30
2022-07-26T01:14:59.940Z,2.63
2022-07-26T01:17:26.461Z,2.15
2022-07-26T01:19:52.944Z,2.00
2022-07-26T01:22:19.492Z,2.30
2022-07-26T01:24:45.984Z,2.45
2022-07-26T01:27:12.463Z,2.15
2022-07-26T01:29:39.096Z,2.00
2022-07-26T01:32:06.142Z,2.03
2022-07-26T01:34:32.973Z,2.35
2022-07-26T01:36:59.665Z,2.42
2022-07-26T01:39:26.585Z,1.98
2022-07-26T01:41:54.290Z,2.08
2022-07-26T01:44:20.824Z,2.95
2022-07-26T01:46:47.339Z,1.75
2022-07-26T01:49:14.109Z,3.05
2022-07-26T01:51:40.884Z,2.05
2022-07-26T01:54:07.833Z,1.88
2022-07-26T01:56:35.012Z,2.60
2022-07-26T01:59:01.772Z,2.60
2022-07-26T02:01:38.236Z,1.52
2022-07-26T02:04:29.650Z,3.13
2022-07-26T02:06:56.179Z,2.78
2022-07-26T02:09:22.681Z,1.15
2022-07-26T02:11:49.261Z,1.48
2022-07-26T02:14:25.759Z,3.05
2022-07-26T02:16:59.676Z,1.63
2022-07-26T02:19:28.803Z,2.75
2022-07-26T02:21:55.867Z,1.90
2022-07-26T02:24:22.585Z,3.63
2022-07-26T02:26:49.154Z,2.80
2022-07-26T02:29:15.772Z,2.13
2022-07-26T02:31:42.323Z,2.08
2022-07-26T02:34:15.169Z,2.42
2022-07-26T02:36:41.749Z,2.03
2022-07-26T02:39:08.330Z,3.85
2022-07-26T02:41:34.874Z,3.53
2022-07-26T02:44:01.582Z,2.90
2022-07-26T02:46:28.139Z,3.03
2022-07-26T02:48:54.812Z,3.00
2022-07-26T02:51:21.422Z,2.90
2022-07-26T02:53:47.965Z,3.00
2022-07-26T02:56:14.511Z,3.00
2022-07-26T02:58:41.093Z,2.42
2022-07-26T03:01:08.057Z,3.70
2022-07-26T03:03:36.662Z,3.60
2022-07-26T03:06:05.017Z,1.80
2022-07-26T03:08:31.669Z,1.70
2022-07-26T03:10:58.236Z,3.13
2022-07-26T03:13:24.775Z,1.90
2022-07-26T03:15:51.347Z,3.35
2022-07-26T03:18:17.916Z,2.90
2022-07-26T03:20:44.644Z,3.45
2022-07-26T03:23:11.187Z,2.70
2022-07-26T03:25:38.416Z,2.83
2022-07-26T03:28:05.243Z,2.47
2022-07-26T03:30:31.913Z,2.50
2022-07-26T03:32:58.738Z,1.75
2022-07-26T03:35:25.825Z,1.15
2022-07-26T03:37:52.513Z,3.55
2022-07-26T03:40:19.643Z,1.85
2022-07-26T03:42:47.373Z,2.53
2022-07-26T03:45:15.688Z,1.88
2022-07-26T03:47:43.267Z,2.42
2022-07-26T03:50:11.117Z,5.13
2022-07-26T03:52:37.958Z,3.55
2022-07-26T03:55:24.912Z,1.75
2022-07-26T03:57:51.474Z,3.80
2022-07-26T04:00:18.243Z,1.75
2022-07-26T04:02:44.850Z,4.60
2022-07-26T04:05:11.428Z,5.07
2022-07-26T04:07:52.663Z,4.93
2022-07-26T04:10:20.423Z,4.15
2022-07-26T04:12:46.905Z,5.88
2022-07-26T04:15:13.475Z,5.07
2022-07-26T04:17:41.114Z,1.95
2022-07-26T04:20:10.453Z,3.35
2022-07-26T04:22:38.645Z,4.85
2022-07-26T04:25:06.758Z,3.90
2022-07-26T04:27:33.633Z,4.15
2022-07-26T04:30:00.522Z,3.72
2022-07-26T04:32:27.132Z,5.03
2022-07-26T04:34:53.743Z,5.00
2022-07-26T04:37:20.344Z,5.05
2022-07-26T04:39:50.427Z,5.75
2022-07-26T04:42:19.584Z,5.10
2022-07-26T04:44:46.111Z,5.13
2022-07-26T04:47:12.592Z,6.93
2022-07-26T04:49:40.624Z,7.00
2022-07-26T04:52:07.171Z,6.78
2022-07-26T04:54:33.687Z,6.88
2022-07-26T04:57:00.194Z,6.32
2022-07-26T04:59:26.703Z,5.97
2022-07-26T05:01:53.225Z,6.22
2022-07-26T05:04:19.718Z,6.13
2022-07-26T05:06:46.300Z,7.47
2022-07-26T05:09:12.789Z,6.20
2022-07-26T05:11:39.319Z,7.15
2022-07-26T05:14:06.094Z,5.65
2022-07-26T05:16:33.147Z,7.15
2022-07-26T05:19:00.125Z,5.63
2022-07-26T05:21:28.041Z,7.90
2022-07-26T05:23:55.541Z,6.07
2022-07-26T05:26:22.125Z,4.85
2022-07-26T05:28:48.691Z,4.65
2022-07-26T05:31:15.269Z,5.13
2022-07-26T05:33:42.114Z,6.28
2022-07-26T05:36:09.434Z,4.85
2022-07-26T05:38:35.970Z,5.93
2022-07-26T05:41:02.675Z,6.13
2022-07-26T05:43:41.394Z,7.10
2022-07-26T05:46:09.801Z,6.63
2022-07-26T05:48:36.559Z,6.60
2022-07-26T05:51:03.215Z,6.93
2022-07-26T05:53:29.798Z,6.55
2022-07-26T05:55:56.318Z,7.05
2022-07-26T05:58:22.829Z,6.20
2022-07-26T06:00:49.345Z,6.38
2022-07-26T06:03:25.700Z,5.18
2022-07-26T06:05:55.292Z,6.82
2022-07-26T06:08:22.457Z,7.63
2022-07-26T06:10:49.929Z,5.07
2022-07-26T06:13:17.094Z,5.95
2022-07-26T06:15:45.206Z,3.80
2022-07-26T06:18:11.889Z,6.45
2022-07-26T06:20:40.343Z,5.60
2022-07-26T06:23:07.054Z,6.18
2022-07-26T06:25:34.419Z,6.70
2022-07-26T06:28:05.588Z,3.00
2022-07-26T06:30:32.147Z,2.35
2022-07-26T06:32:58.667Z,6.68
2022-07-26T06:35:25.437Z,7.32
2022-07-26T06:37:51.942Z,8.88
2022-07-26T06:40:18.436Z,5.88
2022-07-26T06:42:44.999Z,6.85
2022-07-26T06:45:11.525Z,7.28
2022-07-26T06:47:38.030Z,9.07
2022-07-26T06:50:05.426Z,9.98
2022-07-26T06:52:32.892Z,5.82
2022-07-26T06:55:00.346Z,9.48
2022-07-26T06:57:27.186Z,7.35
2022-07-26T06:59:54.015Z,8.18
2022-07-26T07:02:21.014Z,8.30
2022-07-26T07:04:47.619Z,9.50
2022-07-26T07:07:14.222Z,8.68
2022-07-26T07:09:41.257Z,11.00
2022-07-26T07:12:09.790Z,6.03
2022-07-26T07:14:38.117Z,6.05
2022-07-26T07:17:11.184Z,7.28
2022-07-26T07:19:40.733Z,11.57
2022-07-26T07:22:11.605Z,14.00
2022-07-26T07:24:38.866Z,13.32
2022-07-26T07:27:05.951Z,12.35
2022-07-26T07:29:33.439Z,12.32
2022-07-26T07:32:00.428Z,12.48
2022-07-26T07:34:30.137Z,3.78
2022-07-26T07:36:57.639Z,10.55
2022-07-26T07:39:24.281Z,11.05
2022-07-26T07:42:01.233Z,10.23
2022-07-26T07:44:27.829Z,9.27
2022-07-26T07:46:54.446Z,8.40
2022-07-26T07:49:22.200Z,6.75
2022-07-26T07:51:48.859Z,7.55
2022-07-26T07:54:16.107Z,5.25
2022-07-26T07:56:43.265Z,8.13
2022-07-26T07:59:10.681Z,3.85
2022-07-26T08:01:40.052Z,5.05
2022-07-26T08:04:08.225Z,9.35
2022-07-26T08:06:34.823Z,5.43
2022-07-26T08:09:01.392Z,3.30
2022-07-26T08:11:30.438Z,6.78
2022-07-26T08:13:57.063Z,7.45
2022-07-26T08:16:24.640Z,6.40
2022-07-26T08:18:57.088Z,5.32
2022-07-26T08:21:28.067Z,4.95
2022-07-26T08:23:56.872Z,5.57
2022-07-26T08:26:23.794Z,2.33
2022-07-26T08:28:59.921Z,2.72
2022-07-26T08:31:28.217Z,4.75
2022-07-26T08:33:54.946Z,5.20
2022-07-26T08:36:21.525Z,6.07
2022-07-26T08:38:48.611Z,3.90
2022-07-26T08:41:17.105Z,2.13
2022-07-26T08:43:53.138Z,4.35
2022-07-26T08:46:25.760Z,1.92
2022-07-26T08:48:53.754Z,4.07
2022-07-26T08:51:22.909Z,1.75
2022-07-26T08:53:53.426Z,3.28
2022-07-26T08:56:19.981Z,3.90
2022-07-26T08:58:46.514Z,2.17
2022-07-26T09:01:13.506Z,2.60
2022-07-26T09:03:44.332Z,3.75
2022-07-26T09:06:21.920Z,1.70
2022-07-26T09:08:53.046Z,2.17
2022-07-26T09:11:33.132Z,3.50
2022-07-26T09:14:05.113Z,2.90
2022-07-26T09:16:36.033Z,1.77
2022-07-26T09:19:18.988Z,2.50
2022-07-26T09:21:46.662Z,2.90
2022-07-26T09:24:29.127Z,3.42
2022-07-26T09:27:00.601Z,3.17
2022-07-26T09:29:29.027Z,2.95
2022-07-26T09:32:16.867Z,4.05
2022-07-26T09:34:52.657Z,2.90
2022-07-26T09:37:37.514Z,4.13
2022-07-26T09:40:08.267Z,3.13
2022-07-26T09:42:35.197Z,2.45
2022-07-26T09:45:02.483Z,3.15
2022-07-26T09:47:36.995Z,4.72
2022-07-26T09:50:15.854Z,2.15
2022-07-26T09:53:08.963Z,4.07
2022-07-26T09:55:57.178Z,2.05
2022-07-26T09:58:24.967Z,4.00
2022-07-26T10:00:51.788Z,4.65
2022-07-26T10:03:18.449Z,3.83
2022-07-26T10:05:45.062Z,2.70
2022-07-26T10:08:12.704Z,2.40
2022-07-26T10:10:46.486Z,2.05
2022-07-26T10:13:13.877Z,1.85
2022-07-26T10:15:46.866Z,1.67
2022-07-26T10:18:38.506Z,1.80
2022-07-26T10:21:30.506Z,2.17
2022-07-26T10:24:01.873Z,1.77
2022-07-26T10:26:31.347Z,1.98
2022-07-26T10:29:19.133Z,1.88
2022-07-26T10:32:08.031Z,2.10
2022-07-26T10:34:37.498Z,2.20
2022-07-26T10:37:07.625Z,2.28
2022-07-26T10:39:34.691Z,1.70
2022-07-26T10:42:09.979Z,2.83
2022-07-26T10:44:39.552Z,2.28
2022-07-26T10:47:09.079Z,2.65
2022-07-26T10:49:38.471Z,2.03
2022-07-26T10:52:20.232Z,1.88
2022-07-26T10:55:04.846Z,2.10
2022-07-26T10:57:34.314Z,2.05
2022-07-26T11:00:02.098Z,2.10
2022-07-26T11:02:32.504Z,2.42
2022-07-26T11:05:03.075Z,2.60
2022-07-26T11:07:30.065Z,2.20
2022-07-26T11:10:00.794Z,2.33
2022-07-26T11:12:27.581Z,2.03
2022-07-26T11:14:54.383Z,1.65
2022-07-26T11:17:29.354Z,1.80
2022-07-26T11:19:56.945Z,1.92
2022-07-26T11:22:31.968Z,2.20
2022-07-26T11:24:58.554Z,1.63
2022-07-26T11:27:25.092Z,1.80
2022-07-26T11:29:51.633Z,2.53
2022-07-26T11:32:25.116Z,1.30
2022-07-26T11:35:02.919Z,0.95
2022-07-26T11:37:29.915Z,0.80
2022-07-26T11:39:56.844Z,1.00
2022-07-26T11:42:23.428Z,1.00
2022-07-26T11:44:50.545Z,1.77
2022-07-26T11:47:25.564Z,0.90
2022-07-26T11:52:40.225Z,0.80
2022-07-26T11:55:07.494Z,0.75
2022-07-26T11:57:34.040Z,1.00
2022-07-26T12:00:01.527Z,0.85
2022-07-26T12:02:30.271Z,0.90
2022-07-26T12:05:19.248Z,0.50
2022-07-26T12:08:03.896Z,0.77
2022-07-26T12:10:30.627Z,0.60
2022-07-26T12:13:15.420Z,0.60
2022-07-26T12:15:50.628Z,0.50
2022-07-26T12:18:35.276Z,0.70
2022-07-26T12:21:07.436Z,0.87
2022-07-26T12:23:45.820Z,0.90
2022-07-26T12:26:30.662Z,0.60
2022-07-26T12:28:59.712Z,0.90
2022-07-26T12:31:31.056Z,0.70
2022-07-26T12:33:58.897Z,0.80
2022-07-26T12:36:27.713Z,0.63
2022-07-26T12:38:56.687Z,0.60
2022-07-26T12:41:33.314Z,0.95
2022-07-26T12:43:59.988Z,0.60
2022-07-26T12:46:26.734Z,0.70
2022-07-26T12:48:56.807Z,0.88
2022-07-26T12:51:26.722Z,0.40
2022-07-26T12:53:53.260Z,0.70
2022-07-26T12:56:19.734Z,0.68
2022-07-26T12:58:46.183Z,0.90
2022-07-26T13:01:12.972Z,0.68
2022-07-26T13:03:39.600Z,0.60
2022-07-26T13:06:06.726Z,0.80
2022-07-26T13:08:33.281Z,0.50
2022-07-26T13:11:00.268Z,0.75
2022-07-26T13:13:26.924Z,0.80
2022-07-26T13:15:53.427Z,0.80
2022-07-26T13:18:19.961Z,0.93
2022-07-26T13:20:46.466Z,0.70
2022-07-26T13:23:15.812Z,0.70
2022-07-26T13:25:48.601Z,0.90
2022-07-26T13:28:17.362Z,0.80
2022-07-26T13:30:45.080Z,0.68
2022-07-26T13:33:12.404Z,0.80
2022-07-26T13:35:41.331Z,0.98
2022-07-26T13:38:09.014Z,0.60
2022-07-26T13:40:36.118Z,0.60
2022-07-26T13:43:02.947Z,0.80
2022-07-26T13:45:29.847Z,0.90
2022-07-26T13:47:59.080Z,0.77
2022-07-26T13:50:27.332Z,0.85
2022-07-26T13:52:56.210Z,0.80
2022-07-26T13:55:23.227Z,1.27
2022-07-26T13:57:55.978Z,0.65
2022-07-26T14:00:24.548Z,0.90
2022-07-26T14:02:51.169Z,0.82
2022-07-26T14:05:18.743Z,0.90
2022-07-26T14:07:45.553Z,1.40
2022-07-26T14:10:12.096Z,1.10
2022-07-26T14:12:38.735Z,1.13
2022-07-26T14:15:12.010Z,2.58
2022-07-26T14:17:40.648Z,1.33
2022-07-26T14:20:07.872Z,1.05
2022-07-26T14:22:34.353Z,0.93
2022-07-26T14:25:00.921Z,0.82
2022-07-26T14:27:27.618Z,1.42
2022-07-26T14:29:54.167Z,1.20
2022-07-26T14:32:22.142Z,1.40
2022-07-26T14:34:49.554Z,1.48
2022-07-26T14:37:44.158Z,1.42
2022-07-26T14:40:04.851Z,1.23
2022-07-26T14:42:31.382Z,1.00
2022-07-26T14:44:57.930Z,1.08
2022-07-26T14:47:24.499Z,1.40
2022-07-26T14:49:51.062Z,1.10
2022-07-26T14:52:17.656Z,2.42
2022-07-26T14:54:44.230Z,2.67
2022-07-26T14:57:10.740Z,1.50
2022-07-26T14:59:37.251Z,1.48
2022-07-26T15:02:05.850Z,1.10
2022-07-26T15:04:32.868Z,0.75
2022-07-26T15:06:59.796Z,0.77
2022-07-26T15:09:26.316Z,1.10
2022-07-26T15:11:53.098Z,0.98
2022-07-26T15:14:19.673Z,0.98
2022-07-26T15:16:46.439Z,0.90
2022-07-26T15:19:13.013Z,0.80
2022-07-26T15:21:39.664Z,0.90
2022-07-26T15:24:06.553Z,0.80
2022-07-26T15:26:33.137Z,0.98
2022-07-26T15:28:59.717Z,1.05
2022-07-26T15:31:37.168Z,1.15
2022-07-26T15:34:07.550Z,1.02
2022-07-26T15:36:34.579Z,0.93
2022-07-26T15:39:14.716Z,1.60
2022-07-26T15:41:43.764Z,1.08
2022-07-26T15:44:12.255Z,1.30
2022-07-26T15:46:39.900Z,1.25
2022-07-26T15:49:07.549Z,1.13
2022-07-26T15:51:34.389Z,1.05
2022-07-26T15:54:03.052Z,1.00
2022-07-26T15:56:29.949Z,1.52
2022-07-26T15:58:56.610Z,1.60
2022-07-26T16:01:23.326Z,1.67
2022-07-26T16:03:50.565Z,1.80
2022-07-26T16:06:18.223Z,1.45
2022-07-26T16:09:05.937Z,1.73
2022-07-26T16:11:31.822Z,1.63
2022-07-26T16:14:00.922Z,1.60
2022-07-26T16:16:29.337Z,2.42
2022-07-26T16:18:56.028Z,1.20
2022-07-26T16:21:22.561Z,1.55
2022-07-26T16:23:50.822Z,1.25
2022-07-26T16:26:17.922Z,1.10
2022-07-26T16:28:44.533Z,1.55
2022-07-26T16:31:11.156Z,1.50
2022-07-26T16:33:37.851Z,1.65
2022-07-26T16:36:12.442Z,2.67
2022-07-26T16:38:39.010Z,1.55
2022-07-26T16:41:07.371Z,2.38
2022-07-26T16:43:34.596Z,1.52
2022-07-26T16:46:01.498Z,1.83
2022-07-26T16:48:28.185Z,1.70
2022-07-26T16:50:54.829Z,1.90
2022-07-26T16:53:21.430Z,2.40
2022-07-26T16:55:49.694Z,2.20
2022-07-26T16:58:16.575Z,2.13
2022-07-26T17:00:43.476Z,2.35
2022-07-26T17:03:10.237Z,2.40
2022-07-26T17:05:36.829Z,2.55
2022-07-26T17:08:03.493Z,2.55
2022-07-26T17:10:30.056Z,1.95
2022-07-26T17:12:56.618Z,2.22
2022-07-26T17:15:23.138Z,1.90
2022-07-26T17:17:49.796Z,2.30
2022-07-26T17:20:16.936Z,2.28
2022-07-26T17:22:43.511Z,2.20
2022-07-26T17:25:10.240Z,2.53
2022-07-26T17:27:36.963Z,2.08
2022-07-26T17:30:07.092Z,2.58
2022-07-26T17:32:34.380Z,2.28
2022-07-26T17:35:01.057Z,2.22
2022-07-26T17:37:27.658Z,2.90
2022-07-26T17:39:55.333Z,1.80
2022-07-26T17:42:24.289Z,2.15
2022-07-26T17:44:51.208Z,2.22
2022-07-26T17:47:29.089Z,2.20
2022-07-26T17:50:08.925Z,2.60
2022-07-26T17:52:45.315Z,2.63
2022-07-26T17:55:12.027Z,2.45
2022-07-26T17:57:38.589Z,2.40
2022-07-26T18:00:06.715Z,2.80
2022-07-26T18:02:33.525Z,2.38
2022-07-26T18:05:00.269Z,2.55
2022-07-26T18:07:27.095Z,2.30
2022-07-26T18:09:53.585Z,2.10
2022-07-26T18:12:20.372Z,2.63
2022-07-26T18:14:46.884Z,2.45
2022-07-26T18:17:13.427Z,2.20
2022-07-26T18:19:40.006Z,3.08
2022-07-26T18:22:06.598Z,2.25
2022-07-26T18:24:33.220Z,2.50
2022-07-26T18:26:59.760Z,2.20
2022-07-26T18:29:26.340Z,2.30
2022-07-26T18:31:52.927Z,2.47
2022-07-26T18:34:19.522Z,2.97
2022-07-26T18:36:46.113Z,2.22
2022-07-26T18:39:13.051Z,2.00
2022-07-26T18:41:39.809Z,2.55
2022-07-26T18:44:06.345Z,2.28
2022-07-26T18:46:33.684Z,2.45
2022-07-26T18:49:00.614Z,2.10
2022-07-26T18:51:29.188Z,2.47
2022-07-26T18:53:58.277Z,2.20
2022-07-26T18:56:24.913Z,2.40
2022-07-26T18:58:51.514Z,3.40
2022-07-26T19:01:18.268Z,2.75
2022-07-26T19:03:44.910Z,3.53
2022-07-26T19:06:13.076Z,2.67
2022-07-26T19:08:39.664Z,2.67
2022-07-26T19:11:06.333Z,2.75
2022-07-26T19:13:32.915Z,2.30
2022-07-26T19:15:59.462Z,2.28
2022-07-26T19:18:25.984Z,2.40
2022-07-26T19:20:52.476Z,1.90
2022-07-26T19:23:19.072Z,2.08
2022-07-26T19:25:46.387Z,2.35
2022-07-26T19:28:13.787Z,2.00
2022-07-26T19:30:40.494Z,2.47
2022-07-26T19:33:07.268Z,2.50
2022-07-26T19:35:33.747Z,2.65
2022-07-26T19:38:00.403Z,2.55
2022-07-26T19:40:27.031Z,1.90
2022-07-26T19:42:53.585Z,2.00
2022-07-26T19:45:20.127Z,1.83
2022-07-26T19:47:46.735Z,2.35
2022-07-26T19:50:13.512Z,2.05
2022-07-26T19:52:40.790Z,2.60
2022-07-26T19:55:08.189Z,2.65
2022-07-26T19:57:34.817Z,2.20
2022-07-26T20:00:03.013Z,2.20
2022-07-26T20:02:29.772Z,2.17
2022-07-26T20:04:56.366Z,1.73
2022-07-26T20:07:22.939Z,2.05
2022-07-26T20:09:50.589Z,1.63
2022-07-26T20:12:18.542Z,2.17
2022-07-26T20:14:45.381Z,1.88
2022-07-26T20:17:13.262Z,2.13
2022-07-26T20:19:40.457Z,1.77
2022-07-26T20:22:07.071Z,1.95
2022-07-26T20:24:34.433Z,1.70
2022-07-26T20:27:00.919Z,2.28
2022-07-26T20:29:27.564Z,1.83
2022-07-26T20:31:54.095Z,1.65
2022-07-26T20:34:20.596Z,1.48
2022-07-26T20:36:47.305Z,1.55
2022-07-26T20:39:15.055Z,1.55
2022-07-26T20:41:41.794Z,2.00
2022-07-26T20:44:08.432Z,1.92
2022-07-26T20:46:39.994Z,3.03
2022-07-26T20:49:08.022Z,2.00
2022-07-26T20:51:34.808Z,2.10
2022-07-26T20:54:01.418Z,1.85
2022-07-26T20:56:29.123Z,1.70
2022-07-26T20:58:55.689Z,1.70
2022-07-26T21:01:22.470Z,1.83
2022-07-26T21:03:48.983Z,1.67
2022-07-26T21:06:15.679Z,1.70
2022-07-26T21:08:42.201Z,1.95
2022-07-26T21:11:08.690Z,1.77
2022-07-26T21:13:35.199Z,1.90
2022-07-26T21:16:01.801Z,2.20
2022-07-26T21:18:32.669Z,1.70
2022-07-26T21:21:01.652Z,2.70
2022-07-26T21:23:28.212Z,1.92
2022-07-26T21:25:58.096Z,1.48
2022-07-26T21:28:27.300Z,1.90
2022-07-26T21:30:54.143Z,1.40
2022-07-26T21:33:20.869Z,1.95
2022-07-26T21:35:47.381Z,1.70
2022-07-26T21:38:14.077Z,1.80
2022-07-26T21:40:40.632Z,1.48
2022-07-26T21:43:07.249Z,1.70
2022-07-26T21:45:33.876Z,1.77
2022-07-26T21:48:00.481Z,1.42
2022-07-26T21:50:27.847Z,1.73
2022-07-26T21:52:54.329Z,1.80
2022-07-26T21:55:20.937Z,1.75
2022-07-26T21:57:47.988Z,1.95
2022-07-26T22:00:16.275Z,1.58
2022-07-26T22:02:42.845Z,1.55
2022-07-26T22:05:28.167Z,1.90
2022-07-26T22:07:55.140Z,1.65
2022-07-26T22:10:21.809Z,1.75
2022-07-26T22:12:48.295Z,1.42
2022-07-26T22:15:14.837Z,1.83
2022-07-26T22:17:41.505Z,1.88
2022-07-26T22:20:09.071Z,1.70
2022-07-26T22:22:36.686Z,1.50
2022-07-26T22:25:04.768Z,1.77
2022-07-26T22:27:31.300Z,1.70
2022-07-26T22:29:57.801Z,1.60
2022-07-26T22:32:24.415Z,1.70
2022-07-26T22:34:50.910Z,1.73
2022-07-26T22:37:17.488Z,1.45
2022-07-26T22:39:44.021Z,1.20
2022-07-26T22:42:15.786Z,1.60
2022-07-26T22:44:42.893Z,1.77
2022-07-26T22:47:09.410Z,1.67
2022-07-26T22:49:36.028Z,2.15
2022-07-26T22:52:02.662Z,1.40
2022-07-26T22:54:29.230Z,1.95
2022-07-26T22:56:55.920Z,1.70
2022-07-26T22:59:22.794Z,1.45
2022-07-26T23:01:49.370Z,1.65
2022-07-26T23:04:16.098Z,1.60
2022-07-26T23:06:43.002Z,1.10
2022-07-26T23:09:11.508Z,1.33
2022-07-26T23:11:38.373Z,1.13
2022-07-26T23:14:05.083Z,1.50
2022-07-26T23:16:31.787Z,1.42
2022-07-26T23:18:58.359Z,0.98
2022-07-26T23:21:25.320Z,1.38
2022-07-26T23:23:51.810Z,1.45
2022-07-26T23:26:18.306Z,1.35
2022-07-26T23:28:44.791Z,1.30
2022-07-26T23:31:14.352Z,1.45
2022-07-26T23:33:53.326Z,1.60
2022-07-26T23:36:30.105Z,1.60
2022-07-26T23:38:58.967Z,1.17
2022-07-26T23:41:26.666Z,1.60
2022-07-26T23:43:54.434Z,1.25
2022-07-26T23:46:21.743Z,1.67
2022-07-26T23:48:48.466Z,1.52
2022-07-26T23:51:15.367Z,1.60
2022-07-26T23:53:42.063Z,1.35
2022-07-26T23:56:08.706Z,1.23
2022-07-26T23:58:35.292Z,1.77
